This is the latest recevied weather packets stored in our database for station/object GW1477. If no packets are shown the sender has not sent any weather packets the latest 10 day(s).
| Time | Temp. | Humidity | Pressure | Rain* | Wind** | Luminosity | Snow |
|---|---|---|---|---|---|---|---|
| 1777910082 | 15.56° C | 51% | - | 0 mm | - | - | - |
| 1777908269 | 14.44° C | 52% | - | 0 mm | - | - | - |
| 1777907533 | 14.44° C | 52% | - | 0 mm | - | - | - |
| 1777906483 | 14.44° C | 51% | - | 0 mm | - | - | - |
| 1777903613 | 13.33° C | 54% | - | 0 mm | - | - | - |
| 1777902871 | 12.78° C | 56% | - | 0 mm | - | - | - |
| 1777902164 | 11.67° C | 57% | - | 0 mm | - | - | - |
| 1777898905 | 9.44° C | 68% | - | 0 mm | - | - | - |
| 1777896405 | 7.78° C | 74% | - | 0 mm | - | - | - |
| 1777895324 | 6.67° C | 77% | - | 0 mm | - | - | - |
| 1777892430 | 4.44° C | 83% | - | 0 mm | - | - | - |
| 1777888488 | 6.11° C | 79% | - | 0 mm | - | - | - |
| 1777888097 | 5.56° C | 78% | - | 0 mm | - | - | - |
| 1777885574 | 6.11° C | 76% | - | 0 mm | - | - | - |
| 1777884142 | 6.67° C | 76% | - | 0 mm | - | - | - |
| 1777882695 | 7.22° C | 73% | - | 0 mm | - | - | - |
| 1777882336 | 7.22° C | 72% | - | 0 mm | - | - | - |
| 1777880176 | 7.22° C | 69% | - | 0 mm | - | - | - |
| 1777873000 | 5° C | 72% | - | 0 mm | - | - | - |
| 1777868671 | 6.11° C | 66% | - | 0 mm | - | - | - |
| 1777867605 | 6.67° C | 59% | - | 0 mm | - | - | - |
| 1777865773 | 7.22° C | 56% | - | 0 mm | - | - | - |
| 1777865436 | 7.78° C | 55% | - | 0 mm | - | - | - |
| 1777863254 | 7.78° C | 52% | - | 0 mm | - | - | - |
| 1777862540 | 7.78° C | 51% | - | 0 mm | - | - | - |
* Rain since midnight (hover to see other rain measurements)
** Current wind speed in m/s (hover to see current wind gust speed)